aviador You're here:

OINR Decoded Metar

RAMSAR in IRAN
Report Time2018-02-22 08:00:00
UTC Time2018-02-22 08:22:15
Flight Rules vfr VFR
Wind050° at 06 kt
W.Decomp.*RWY 13: 0.6 kt HW 6 kt LCW
W.Rank050° ranks 26
Current wind is above 050° avg. (5.1)
Visibility9999 m
Phenomena:N/A
Clouds:Few CB 023 Hf
Scattered 025 Hf
Broken 090 Hf
Expected CloudBase > 1,200 ft AGL from Temp-Dew spread
Ceiling9,000 ft
Temp11°C (ISA -4)
Dew Point08°C (82% RH)
AAT8.4°C
QNH1016 hPa
Density Alt-515 ft
Elevation-66 ft
Report Wrong Elevation
Raw Report
OINR 220800Z 05006KT 9999 FEW023CB SCT025 BKN090 11/08 Q1016=

Extra information for OINR:More info

Metar Taf Metar & Taf Last 4 Metars F.Rules Stats Wind Profile Meteogram Temp Stats Airport Information Weather charts Add Link Nearby VenuesMetar ALERT Operation Metar Decoded Social comments